createdAt,value
2017-08-21T00:00:14.995Z,62.8
2017-08-21T00:00:47.281Z,62.8
2017-08-21T00:01:19.583Z,62.45
2017-08-21T00:01:51.891Z,63.38
2017-08-21T00:02:24.189Z,62.61
2017-08-21T00:02:56.492Z,63.31
2017-08-21T00:03:28.773Z,62.71
2017-08-21T00:04:01.065Z,63.18
2017-08-21T00:04:33.352Z,62.8
2017-08-21T00:05:05.649Z,63.18
2017-08-21T00:05:37.940Z,62.71
2017-08-21T00:06:10.226Z,62.74
2017-08-21T00:06:42.540Z,62.61
2017-08-21T00:07:14.828Z,62.71
2017-08-21T00:07:47.110Z,62.51
2017-08-21T00:08:19.411Z,62.41
2017-08-21T00:08:51.718Z,63.18
2017-08-21T00:09:24.008Z,62.51
2017-08-21T00:09:56.305Z,62.51
2017-08-21T00:10:28.603Z,63.09
2017-08-21T00:11:00.906Z,62.51
2017-08-21T00:11:35.130Z,63.09
2017-08-21T00:12:07.431Z,63.18
2017-08-21T00:12:39.725Z,62.51
2017-08-21T00:13:11.979Z,63.18
2017-08-21T00:13:44.248Z,63.18
2017-08-21T00:14:16.625Z,63.18
2017-08-21T00:14:48.876Z,62.51
2017-08-21T00:15:21.241Z,63.09
2017-08-21T00:15:53.507Z,62.71
2017-08-21T00:16:26.522Z,62.71
2017-08-21T00:16:58.800Z,62.51
2017-08-21T00:17:31.074Z,62.51
2017-08-21T00:18:03.339Z,63.28
2017-08-21T00:18:35.615Z,62.61
2017-08-21T00:19:07.874Z,62.71
2017-08-21T00:19:40.136Z,62.61
2017-08-21T00:20:12.405Z,63.18
2017-08-21T00:20:44.697Z,62.71
2017-08-21T00:21:16.957Z,62.61
2017-08-21T00:21:49.274Z,62.51
2017-08-21T00:22:21.554Z,62.51
2017-08-21T00:22:53.831Z,62.51
2017-08-21T00:23:26.139Z,62.8
2017-08-21T00:23:58.432Z,63.09
2017-08-21T00:24:30.732Z,62.8
2017-08-21T00:25:03.032Z,63.28
2017-08-21T00:25:35.333Z,62.51
2017-08-21T00:26:07.643Z,62.8
2017-08-21T00:26:39.936Z,62.8
2017-08-21T00:27:12.234Z,62.71
2017-08-21T00:27:44.548Z,62.8
2017-08-21T00:28:16.842Z,62.8
2017-08-21T00:28:49.142Z,62.61
2017-08-21T00:29:21.443Z,62.71
2017-08-21T00:29:53.763Z,62.8
2017-08-21T00:30:26.051Z,62.71
2017-08-21T00:30:58.351Z,62.8
2017-08-21T00:31:30.650Z,62.8
2017-08-21T00:32:02.950Z,62.71
2017-08-21T00:32:35.243Z,62.8
2017-08-21T00:33:07.527Z,62.71
2017-08-21T00:33:39.826Z,63.28
2017-08-21T00:34:12.100Z,63.28
2017-08-21T00:34:44.406Z,62.8
2017-08-21T00:35:16.709Z,62.8
2017-08-21T00:35:49.004Z,62.8
2017-08-21T00:36:21.301Z,62.8
2017-08-21T00:36:53.578Z,63.18
2017-08-21T00:37:25.861Z,62.71
2017-08-21T00:37:58.145Z,63.18
2017-08-21T00:38:30.434Z,62.8
2017-08-21T00:39:02.725Z,62.8
2017-08-21T00:39:35.013Z,62.71
2017-08-21T00:40:07.328Z,63.18
2017-08-21T00:40:39.613Z,62.8
2017-08-21T00:41:11.927Z,62.71
2017-08-21T00:41:44.239Z,63.28
2017-08-21T00:42:16.548Z,62.71
2017-08-21T00:42:48.843Z,62.8
2017-08-21T00:43:21.179Z,62.8
2017-08-21T00:43:53.424Z,62.61
2017-08-21T00:44:25.694Z,62.51
2017-08-21T00:44:57.960Z,63.18
2017-08-21T00:45:30.240Z,62.8
2017-08-21T00:46:02.485Z,62.61
2017-08-21T00:46:34.797Z,62.71
2017-08-21T00:47:07.069Z,62.71
2017-08-21T00:47:39.328Z,62.61
2017-08-21T00:48:11.589Z,62.8
2017-08-21T00:48:43.876Z,62.71
2017-08-21T00:49:16.144Z,63.57
2017-08-21T00:49:48.407Z,62.51
2017-08-21T00:50:20.771Z,62.71
2017-08-21T00:50:53.039Z,62.8
2017-08-21T00:51:25.355Z,62.71
2017-08-21T00:51:57.642Z,62.71
2017-08-21T00:52:30.013Z,62.61
2017-08-21T00:53:02.277Z,62.8
2017-08-21T00:53:34.549Z,62.8
2017-08-21T00:54:06.801Z,62.61
2017-08-21T00:54:39.104Z,62.8
2017-08-21T00:55:11.350Z,62.8
2017-08-21T00:55:43.606Z,62.8
2017-08-21T00:56:15.876Z,62.71
2017-08-21T00:56:48.195Z,63.38
2017-08-21T00:57:20.447Z,62.51
2017-08-21T00:57:52.714Z,63.38
2017-08-21T00:58:24.984Z,62.51
2017-08-21T00:58:57.249Z,62.71
2017-08-21T00:59:29.620Z,62.71
2017-08-21T01:00:01.894Z,63.48
2017-08-21T01:00:34.164Z,62.71
2017-08-21T01:01:06.433Z,62.8
2017-08-21T01:01:38.704Z,62.71
2017-08-21T01:02:10.995Z,63.48
2017-08-21T01:02:43.279Z,62.61
2017-08-21T01:03:15.539Z,62.61
2017-08-21T01:03:47.824Z,62.8
2017-08-21T01:04:20.185Z,62.71
2017-08-21T01:04:52.449Z,62.71
2017-08-21T01:05:24.683Z,62.9
2017-08-21T01:05:56.953Z,62.71
2017-08-21T01:06:29.215Z,62.71
2017-08-21T01:07:01.469Z,63.67
2017-08-21T01:07:34.382Z,62.77
2017-08-21T01:08:06.651Z,62.71
2017-08-21T01:08:38.925Z,62.8
2017-08-21T01:09:11.160Z,62.8
2017-08-21T01:09:43.481Z,63.57
2017-08-21T01:10:15.751Z,62.77
2017-08-21T01:10:48.042Z,63.25
2017-08-21T01:11:20.362Z,62.71
2017-08-21T01:11:52.634Z,62.8
2017-08-21T01:12:24.918Z,62.8
2017-08-21T01:12:57.232Z,63.25
2017-08-21T01:13:29.524Z,62.9
2017-08-21T01:14:01.846Z,63.15
2017-08-21T01:14:34.147Z,63.25
2017-08-21T01:15:06.457Z,63.09
2017-08-21T01:15:38.755Z,62.8
2017-08-21T01:16:11.053Z,62.68
2017-08-21T01:16:43.338Z,63.18
2017-08-21T01:17:15.620Z,62.9
2017-08-21T01:17:47.932Z,63.35
2017-08-21T01:18:20.235Z,63.35
2017-08-21T01:18:52.554Z,63.35
2017-08-21T01:19:24.856Z,63.15
2017-08-21T01:19:57.151Z,63.25
2017-08-21T01:20:29.442Z,63.45
2017-08-21T01:21:01.755Z,63.15
2017-08-21T01:21:34.055Z,63.57
2017-08-21T01:22:06.339Z,63.18
2017-08-21T01:22:38.658Z,63.15
2017-08-21T01:23:10.968Z,63.18
2017-08-21T01:23:43.329Z,63.15
2017-08-21T01:24:15.596Z,63.54
2017-08-21T01:24:47.829Z,63.15
2017-08-21T01:25:20.111Z,63.15
2017-08-21T01:25:52.397Z,63.15
2017-08-21T01:26:24.659Z,63.18
2017-08-21T01:26:56.903Z,63.09
2017-08-21T01:27:29.199Z,63.45
2017-08-21T01:28:01.449Z,63.15
2017-08-21T01:28:33.705Z,63.25
2017-08-21T01:29:05.966Z,63.45
2017-08-21T01:29:38.235Z,63.45
2017-08-21T01:30:10.504Z,63.64
2017-08-21T01:30:42.767Z,62.96
2017-08-21T01:31:15.035Z,63.18
2017-08-21T01:31:47.280Z,63.06
2017-08-21T01:32:19.534Z,63.06
2017-08-21T01:32:51.794Z,63.06
2017-08-21T01:33:24.054Z,62.96
2017-08-21T01:33:56.316Z,63.06
2017-08-21T01:34:28.573Z,63.25
2017-08-21T01:35:00.833Z,63.45
2017-08-21T01:35:33.083Z,63.15
2017-08-21T01:36:05.435Z,63.15
2017-08-21T01:36:37.687Z,63.15
2017-08-21T01:37:09.956Z,63.06
2017-08-21T01:37:42.195Z,63.06
2017-08-21T01:38:14.476Z,62.96
2017-08-21T01:38:46.742Z,63.35
2017-08-21T01:39:19.008Z,62.96
2017-08-21T01:39:51.298Z,63.35
2017-08-21T01:40:23.552Z,63.06
2017-08-21T01:40:55.834Z,63.06
2017-08-21T01:41:28.154Z,63.45
2017-08-21T01:42:00.403Z,63.06
2017-08-21T01:42:32.681Z,62.96
2017-08-21T01:43:04.975Z,63.06
2017-08-21T01:43:37.244Z,63.45
2017-08-21T01:44:09.499Z,63.06
2017-08-21T01:44:41.787Z,63.06
2017-08-21T01:45:14.068Z,63.06
2017-08-21T01:45:46.357Z,63.06
2017-08-21T01:46:18.621Z,63.06
2017-08-21T01:46:50.885Z,62.96
2017-08-21T01:47:23.191Z,63.06
2017-08-21T01:47:55.460Z,63.06
2017-08-21T01:48:27.719Z,62.96
2017-08-21T01:48:59.961Z,63.06
2017-08-21T01:49:32.227Z,63.06
2017-08-21T01:50:04.513Z,62.96
2017-08-21T01:50:36.786Z,63.15
2017-08-21T01:51:09.965Z,63.15
2017-08-21T01:51:42.213Z,63.45
2017-08-21T01:52:14.474Z,63.25
2017-08-21T01:52:46.765Z,63.15
2017-08-21T01:53:19.031Z,63.15
2017-08-21T01:53:51.287Z,63.35
2017-08-21T01:54:23.545Z,63.45
2017-08-21T01:54:55.805Z,63.35
2017-08-21T01:55:28.060Z,62.96
2017-08-21T01:56:00.337Z,63.25
2017-08-21T01:56:32.640Z,63.25
2017-08-21T01:57:04.979Z,63.06
2017-08-21T01:57:37.335Z,63.25
2017-08-21T01:58:09.632Z,63.15
2017-08-21T01:58:41.924Z,63.15
2017-08-21T01:59:14.228Z,63.45
2017-08-21T01:59:46.510Z,63.35
2017-08-21T02:00:18.768Z,63.35
2017-08-21T02:00:51.028Z,63.15
2017-08-21T02:01:23.286Z,63.15
2017-08-21T02:01:55.549Z,63.25
2017-08-21T02:02:27.823Z,63.25
2017-08-21T02:03:00.066Z,63.25
2017-08-21T02:03:32.332Z,63.54
2017-08-21T02:04:04.595Z,63.25
2017-08-21T02:04:36.860Z,63.15
2017-08-21T02:05:09.126Z,63.15
2017-08-21T02:05:41.481Z,63.15
2017-08-21T02:06:13.761Z,63.25
2017-08-21T02:06:46.020Z,63.25
2017-08-21T02:07:18.291Z,63.15
2017-08-21T02:07:50.558Z,63.25
2017-08-21T02:08:22.820Z,63.45
2017-08-21T02:08:55.159Z,63.35
2017-08-21T02:09:27.417Z,63.54
2017-08-21T02:09:59.666Z,63.15
2017-08-21T02:10:31.898Z,63.35
2017-08-21T02:11:04.149Z,63.15
2017-08-21T02:11:36.417Z,63.25
2017-08-21T02:12:08.673Z,63.25
2017-08-21T02:12:40.951Z,63.25
2017-08-21T02:13:13.235Z,63.06
2017-08-21T02:13:45.542Z,63.35
2017-08-21T02:14:17.852Z,63.06
2017-08-21T02:14:50.147Z,63.25
2017-08-21T02:15:22.441Z,63.25
2017-08-21T02:15:54.734Z,63.15
2017-08-21T02:16:27.053Z,63.06
2017-08-21T02:16:59.351Z,63.15
2017-08-21T02:17:31.653Z,63.15
2017-08-21T02:18:03.943Z,63.35
2017-08-21T02:18:36.250Z,63.06
2017-08-21T02:19:08.548Z,63.15
2017-08-21T02:19:40.843Z,63.35
2017-08-21T02:20:13.144Z,63.45
2017-08-21T02:20:45.448Z,63.25
2017-08-21T02:21:17.739Z,63.25
2017-08-21T02:21:50.026Z,63.25
2017-08-21T02:22:22.327Z,63.54
2017-08-21T02:22:54.646Z,63.25
2017-08-21T02:23:26.924Z,63.25
2017-08-21T02:23:59.258Z,63.15
2017-08-21T02:24:31.546Z,63.25
2017-08-21T02:25:03.849Z,63.35
2017-08-21T02:25:36.138Z,63.25
2017-08-21T02:26:08.435Z,63.35
2017-08-21T02:26:40.741Z,63.25
2017-08-21T02:27:13.031Z,63.25
2017-08-21T02:27:45.318Z,63.54
2017-08-21T02:28:17.622Z,63.45
2017-08-21T02:28:49.902Z,63.15
2017-08-21T02:29:22.192Z,63.25
2017-08-21T02:29:54.474Z,63.64
2017-08-21T02:30:26.771Z,63.35
2017-08-21T02:30:59.112Z,63.15
2017-08-21T02:31:31.395Z,63.25
2017-08-21T02:32:03.701Z,63.35
2017-08-21T02:32:36.016Z,63.25
2017-08-21T02:33:08.301Z,63.25
2017-08-21T02:33:40.573Z,63.06
2017-08-21T02:34:12.857Z,63.25
2017-08-21T02:34:45.108Z,63.25
2017-08-21T02:35:17.493Z,63.25
2017-08-21T02:35:49.734Z,63.35
2017-08-21T02:36:21.992Z,63.25
2017-08-21T02:36:54.249Z,63.35
2017-08-21T02:37:26.512Z,63.35
2017-08-21T02:37:58.780Z,63.73
2017-08-21T02:38:31.149Z,63.25
2017-08-21T02:39:03.442Z,63.06
2017-08-21T02:39:35.718Z,63.83
2017-08-21T02:40:07.999Z,63.54
2017-08-21T02:40:40.327Z,63.25
2017-08-21T02:41:12.605Z,62.87
2017-08-21T02:41:44.895Z,63.35
2017-08-21T02:42:17.166Z,63.06
2017-08-21T02:42:49.435Z,63.06
2017-08-21T02:43:21.710Z,63.54
2017-08-21T02:43:53.989Z,63.06
2017-08-21T02:44:26.250Z,63.06
2017-08-21T02:44:58.507Z,63.73
2017-08-21T02:45:30.848Z,63.92
2017-08-21T02:46:03.237Z,63.15
2017-08-21T02:46:35.486Z,63.89
2017-08-21T02:47:07.757Z,63.83
2017-08-21T02:47:40.029Z,62.87
2017-08-21T02:48:12.295Z,62.93
2017-08-21T02:48:44.564Z,62.96
2017-08-21T02:49:16.842Z,62.96
2017-08-21T02:49:49.087Z,62.96
2017-08-21T02:50:21.356Z,63.73
2017-08-21T02:50:53.618Z,63.06
2017-08-21T02:51:25.920Z,62.96
2017-08-21T02:51:58.175Z,62.96
2017-08-21T02:52:30.434Z,63.73
2017-08-21T02:53:02.713Z,62.96
2017-08-21T02:53:35.004Z,63.06
2017-08-21T02:54:07.326Z,62.96
2017-08-21T02:54:39.623Z,62.96
2017-08-21T02:55:11.917Z,62.96
2017-08-21T02:55:44.217Z,62.96
2017-08-21T02:56:16.502Z,63.35
2017-08-21T02:56:48.789Z,62.93
2017-08-21T02:57:21.085Z,63.73
2017-08-21T02:57:53.387Z,63.73
2017-08-21T02:58:25.687Z,62.96
2017-08-21T02:58:57.988Z,63.06
2017-08-21T02:59:30.295Z,62.96
2017-08-21T03:00:02.590Z,63.45
2017-08-21T03:00:34.893Z,63.35
2017-08-21T03:01:07.183Z,63.92
2017-08-21T03:01:39.502Z,63.79
2017-08-21T03:02:11.807Z,63.32
2017-08-21T03:02:44.101Z,63.41
2017-08-21T03:03:16.396Z,62.93
2017-08-21T03:03:48.697Z,62.84
2017-08-21T03:04:21.019Z,63.41
2017-08-21T03:04:53.317Z,63.35
2017-08-21T03:05:25.618Z,62.87
2017-08-21T03:05:57.921Z,62.84
2017-08-21T03:06:30.188Z,63.35
2017-08-21T03:07:02.468Z,63.35
2017-08-21T03:07:34.769Z,63.41
2017-08-21T03:08:07.057Z,63.41
2017-08-21T03:08:39.371Z,63.41
2017-08-21T03:09:11.682Z,63.41
2017-08-21T03:09:44.005Z,63.12
2017-08-21T03:10:16.294Z,63.89
2017-08-21T03:10:48.582Z,63.45
2017-08-21T03:11:20.900Z,63.35
2017-08-21T03:11:53.210Z,63.32
2017-08-21T03:12:25.509Z,62.84
2017-08-21T03:12:57.809Z,63.12
2017-08-21T03:13:30.052Z,63.25
2017-08-21T03:14:02.313Z,62.87
2017-08-21T03:14:34.583Z,63.06
2017-08-21T03:15:06.899Z,63.92
2017-08-21T03:15:39.148Z,63.12
2017-08-21T03:16:11.395Z,63.92
2017-08-21T03:16:43.685Z,63.06
2017-08-21T03:17:15.929Z,63.92
2017-08-21T03:17:48.191Z,63.25
2017-08-21T03:18:20.458Z,63.02
2017-08-21T03:18:52.710Z,63.25
2017-08-21T03:19:24.984Z,63.25
2017-08-21T03:19:57.310Z,63.89
2017-08-21T03:20:29.598Z,63.02
2017-08-21T03:21:01.868Z,63.02
2017-08-21T03:21:34.126Z,63.22
2017-08-21T03:22:06.385Z,63.22
2017-08-21T03:22:38.651Z,63.22
2017-08-21T03:23:10.908Z,63.32
2017-08-21T03:23:43.188Z,63.32
2017-08-21T03:24:15.477Z,63.22
2017-08-21T03:24:47.759Z,63.32
2017-08-21T03:25:20.061Z,63.32
2017-08-21T03:25:52.367Z,63.22
2017-08-21T03:26:24.657Z,63.22
2017-08-21T03:26:56.957Z,63.32
2017-08-21T03:27:29.264Z,63.32
2017-08-21T03:28:01.552Z,63.79
2017-08-21T03:28:33.839Z,63.32
2017-08-21T03:29:06.134Z,63.22
2017-08-21T03:29:38.433Z,63.79
2017-08-21T03:30:10.738Z,63.22
2017-08-21T03:30:43.028Z,63.22
2017-08-21T03:31:15.329Z,63.32
2017-08-21T03:31:47.620Z,63.32
2017-08-21T03:32:19.908Z,63.02
2017-08-21T03:32:52.225Z,63.32
2017-08-21T03:33:24.490Z,63.22
2017-08-21T03:33:56.730Z,63.32
2017-08-21T03:34:29.025Z,63.79
2017-08-21T03:35:01.387Z,63.22
2017-08-21T03:35:33.660Z,63.22
2017-08-21T03:36:05.921Z,63.79
2017-08-21T03:36:38.191Z,63.79
2017-08-21T03:37:10.501Z,63.32
2017-08-21T03:37:42.786Z,63.79
2017-08-21T03:38:15.048Z,63.32
2017-08-21T03:38:47.298Z,63.22
2017-08-21T03:39:19.585Z,63.22
2017-08-21T03:39:51.851Z,63.22
2017-08-21T03:40:24.119Z,63.22
2017-08-21T03:40:56.397Z,63.32
2017-08-21T03:41:28.678Z,63.22
2017-08-21T03:42:00.944Z,63.79
2017-08-21T03:42:33.207Z,63.41
2017-08-21T03:43:05.456Z,63.41
2017-08-21T03:43:37.728Z,63.22
2017-08-21T03:44:10.005Z,63.7
2017-08-21T03:44:42.248Z,63.89
2017-08-21T03:45:14.507Z,63.7
2017-08-21T03:45:46.760Z,63.22
2017-08-21T03:46:19.106Z,63.89
2017-08-21T03:46:51.394Z,63.22
2017-08-21T03:47:23.660Z,63.22
2017-08-21T03:47:55.927Z,63.41
2017-08-21T03:48:28.204Z,63.22
2017-08-21T03:49:00.486Z,63.7
2017-08-21T03:49:32.773Z,63.32
2017-08-21T03:50:05.032Z,63.22
2017-08-21T03:50:37.307Z,63.7
2017-08-21T03:51:09.573Z,63.89
2017-08-21T03:51:41.885Z,63.22
2017-08-21T03:52:14.147Z,63.79
2017-08-21T03:52:46.401Z,63.22
2017-08-21T03:53:18.689Z,63.12
2017-08-21T03:53:50.950Z,63.41
2017-08-21T03:54:23.274Z,63.41
2017-08-21T03:54:55.518Z,63.12
2017-08-21T03:55:27.780Z,63.22
2017-08-21T03:56:00.048Z,63.89
2017-08-21T03:56:32.397Z,63.22
2017-08-21T03:57:04.661Z,63.22
2017-08-21T03:57:36.947Z,63.41
2017-08-21T03:58:09.220Z,63.32
2017-08-21T03:58:41.491Z,63.22
2017-08-21T03:59:13.757Z,63.79
2017-08-21T03:59:46.029Z,63.32
2017-08-21T04:00:19.063Z,63.32
2017-08-21T04:00:51.459Z,63.99
2017-08-21T04:01:23.736Z,63.22
2017-08-21T04:01:55.986Z,63.41
2017-08-21T04:02:28.321Z,63.32
2017-08-21T04:03:00.640Z,63.22
2017-08-21T04:03:32.937Z,63.22
2017-08-21T04:04:05.225Z,63.89
2017-08-21T04:04:37.526Z,63.12
2017-08-21T04:05:09.819Z,63.22
2017-08-21T04:05:42.128Z,63.32
2017-08-21T04:06:14.423Z,63.32
2017-08-21T04:06:46.718Z,63.32
2017-08-21T04:07:19.014Z,64.09
2017-08-21T04:07:51.320Z,63.32
2017-08-21T04:08:23.625Z,63.32
2017-08-21T04:08:55.934Z,63.32
2017-08-21T04:09:28.219Z,63.12
2017-08-21T04:10:00.521Z,63.22
2017-08-21T04:10:32.816Z,64.09
2017-08-21T04:11:05.120Z,63.32
2017-08-21T04:11:37.413Z,64.09
2017-08-21T04:12:09.695Z,63.41
2017-08-21T04:12:41.982Z,63.32
2017-08-21T04:13:14.274Z,63.41
2017-08-21T04:13:46.559Z,63.32
2017-08-21T04:14:18.868Z,63.41
2017-08-21T04:14:51.154Z,63.41
2017-08-21T04:15:23.453Z,63.32
2017-08-21T04:15:55.747Z,63.41
2017-08-21T04:16:28.075Z,63.41
2017-08-21T04:17:00.369Z,63.41
2017-08-21T04:17:32.673Z,63.99
2017-08-21T04:18:04.960Z,63.32
2017-08-21T04:18:37.256Z,63.41
2017-08-21T04:19:09.575Z,63.41
2017-08-21T04:19:41.890Z,63.12
2017-08-21T04:20:14.193Z,63.41
2017-08-21T04:20:46.498Z,64.28
2017-08-21T04:21:18.797Z,63.51
2017-08-21T04:21:51.095Z,63.79
2017-08-21T04:22:23.401Z,63.41
2017-08-21T04:22:55.713Z,63.32
2017-08-21T04:23:27.996Z,63.12
2017-08-21T04:24:00.287Z,63.32
2017-08-21T04:24:32.573Z,63.41
2017-08-21T04:25:04.877Z,63.41
2017-08-21T04:25:37.184Z,63.32
2017-08-21T04:26:09.474Z,63.22
2017-08-21T04:26:41.766Z,63.32
2017-08-21T04:27:14.075Z,63.12
2017-08-21T04:27:46.374Z,63.41
2017-08-21T04:28:18.673Z,63.32
2017-08-21T04:28:50.966Z,63.41
2017-08-21T04:29:23.249Z,63.99
2017-08-21T04:29:55.546Z,63.99
2017-08-21T04:30:27.837Z,63.41
2017-08-21T04:31:00.154Z,63.12
2017-08-21T04:31:32.435Z,63.32
2017-08-21T04:32:04.714Z,63.41
2017-08-21T04:32:37.011Z,63.51
2017-08-21T04:33:09.293Z,63.32
2017-08-21T04:33:41.605Z,63.99
2017-08-21T04:34:13.896Z,63.32
2017-08-21T04:34:46.177Z,63.41
2017-08-21T04:35:18.492Z,63.12
2017-08-21T04:35:50.770Z,63.32
2017-08-21T04:36:23.045Z,63.32
2017-08-21T04:36:55.295Z,63.32
2017-08-21T04:37:27.580Z,63.51
2017-08-21T04:37:59.844Z,63.32
2017-08-21T04:38:32.109Z,63.41
2017-08-21T04:39:04.364Z,63.41
2017-08-21T04:39:36.631Z,63.99
2017-08-21T04:40:08.897Z,63.22
2017-08-21T04:40:41.175Z,63.51
2017-08-21T04:41:13.478Z,63.99
2017-08-21T04:41:45.756Z,63.12
2017-08-21T04:42:18.016Z,63.22
2017-08-21T04:42:50.242Z,63.89
2017-08-21T04:43:22.503Z,63.89
2017-08-21T04:43:54.782Z,63.41
2017-08-21T04:44:27.054Z,63.41
2017-08-21T04:44:59.330Z,63.41
2017-08-21T04:45:31.612Z,63.12
2017-08-21T04:46:03.875Z,63.99
2017-08-21T04:46:36.121Z,63.22
2017-08-21T04:47:08.404Z,63.89
2017-08-21T04:47:40.642Z,63.32
2017-08-21T04:48:12.884Z,63.41
2017-08-21T04:48:45.145Z,63.41
2017-08-21T04:49:17.443Z,63.22
2017-08-21T04:49:49.695Z,63.22
2017-08-21T04:50:21.958Z,63.32
2017-08-21T04:50:54.212Z,63.99
2017-08-21T04:51:26.499Z,63.32
2017-08-21T04:51:58.783Z,63.32
2017-08-21T04:52:31.081Z,63.12
2017-08-21T04:53:03.349Z,63.51
2017-08-21T04:53:35.604Z,63.22
2017-08-21T04:54:07.953Z,63.22
2017-08-21T04:54:40.233Z,63.51
2017-08-21T04:55:12.518Z,63.41
2017-08-21T04:55:44.786Z,63.89
2017-08-21T04:56:17.066Z,63.41
2017-08-21T04:56:49.323Z,63.22
2017-08-21T04:57:21.597Z,63.32
2017-08-21T04:57:53.867Z,63.12
2017-08-21T04:58:26.137Z,63.22
2017-08-21T04:58:58.400Z,63.7
2017-08-21T04:59:30.666Z,63.22
2017-08-21T05:00:02.904Z,63.22
2017-08-21T05:00:35.189Z,63.22
2017-08-21T05:01:07.451Z,63.22
2017-08-21T05:01:39.702Z,63.22
2017-08-21T05:02:11.961Z,63.12
2017-08-21T05:02:44.253Z,63.32
2017-08-21T05:03:16.530Z,63.32
2017-08-21T05:03:48.826Z,63.22
2017-08-21T05:04:21.097Z,63.32
2017-08-21T05:04:53.370Z,63.22
2017-08-21T05:05:25.761Z,63.22
2017-08-21T05:05:58.050Z,63.32
2017-08-21T05:06:30.306Z,63.22
2017-08-21T05:07:02.550Z,63.22
2017-08-21T05:07:34.827Z,63.22
2017-08-21T05:08:07.101Z,63.22
2017-08-21T05:08:39.367Z,63.22
2017-08-21T05:09:11.681Z,63.22
2017-08-21T05:09:43.953Z,63.22
2017-08-21T05:10:16.211Z,63.22
2017-08-21T05:10:48.471Z,63.89
2017-08-21T05:11:20.719Z,63.22
2017-08-21T05:11:52.971Z,63.89
2017-08-21T05:12:25.266Z,63.02
2017-08-21T05:12:57.529Z,63.12
2017-08-21T05:13:29.780Z,63.02
2017-08-21T05:14:02.058Z,63.89
2017-08-21T05:14:34.336Z,63.99
2017-08-21T05:15:06.641Z,63.99
2017-08-21T05:15:38.910Z,63.02
2017-08-21T05:16:11.185Z,62.84
2017-08-21T05:16:43.570Z,63.41
2017-08-21T05:17:15.834Z,63.02
2017-08-21T05:17:48.095Z,63.41
2017-08-21T05:18:20.368Z,62.93
2017-08-21T05:18:52.627Z,63.89
2017-08-21T05:19:24.892Z,62.93
2017-08-21T05:19:57.151Z,63.79
2017-08-21T05:20:29.478Z,63.89
2017-08-21T05:21:01.739Z,63.7
2017-08-21T05:21:34.002Z,63.32
2017-08-21T05:22:06.248Z,63.02
2017-08-21T05:22:38.516Z,63.12
2017-08-21T05:23:10.792Z,62.93
2017-08-21T05:23:43.128Z,63.79
2017-08-21T05:24:15.381Z,62.84
2017-08-21T05:24:47.635Z,63.89
2017-08-21T05:25:19.905Z,63.22
2017-08-21T05:25:52.172Z,63.22
2017-08-21T05:26:24.487Z,63.22
2017-08-21T05:26:56.783Z,63.41
2017-08-21T05:27:29.024Z,63.7
2017-08-21T05:28:01.319Z,63.22
2017-08-21T05:28:33.596Z,63.22
2017-08-21T05:29:05.906Z,63.25
2017-08-21T05:29:38.189Z,63.25
2017-08-21T05:30:10.595Z,63.32
2017-08-21T05:30:42.880Z,63.12
2017-08-21T05:31:15.150Z,63.22
2017-08-21T05:31:47.455Z,63.12
2017-08-21T05:32:20.661Z,63.22
2017-08-21T05:32:52.948Z,63.22
2017-08-21T05:33:25.214Z,63.15
2017-08-21T05:33:57.619Z,63.15
2017-08-21T05:34:29.849Z,63.25
2017-08-21T05:35:02.068Z,63.25
2017-08-21T05:35:34.452Z,63.32
2017-08-21T05:36:06.903Z,63.22
2017-08-21T05:36:39.145Z,63.25
2017-08-21T05:37:11.404Z,63.25
2017-08-21T05:37:43.656Z,63.45
2017-08-21T05:38:15.926Z,63.15
2017-08-21T05:38:48.186Z,63.15
2017-08-21T05:39:20.442Z,63.35
2017-08-21T05:39:52.706Z,63.15
2017-08-21T05:40:24.969Z,63.45
2017-08-21T05:40:57.266Z,63.45
2017-08-21T05:41:29.567Z,63.54
2017-08-21T05:42:01.822Z,63.06
2017-08-21T05:42:34.090Z,63.15
2017-08-21T05:43:06.360Z,63.02
2017-08-21T05:43:38.617Z,63.35
2017-08-21T05:44:10.881Z,63.35
2017-08-21T05:44:43.287Z,63.06
2017-08-21T05:45:15.519Z,63.15
2017-08-21T05:45:47.770Z,62.96
2017-08-21T05:46:20.040Z,63.25
2017-08-21T05:46:52.329Z,63.15
2017-08-21T05:47:24.692Z,63.06
2017-08-21T05:47:56.968Z,63.35
2017-08-21T05:48:29.246Z,63.06
2017-08-21T05:49:01.507Z,63.64
2017-08-21T05:49:33.777Z,63.06
2017-08-21T05:50:06.030Z,63.06
2017-08-21T05:50:38.300Z,63.15
2017-08-21T05:51:10.562Z,63.15
2017-08-21T05:51:42.906Z,63.15
2017-08-21T05:52:15.268Z,63.15
2017-08-21T05:52:47.529Z,63.35
2017-08-21T05:53:19.804Z,63.25
2017-08-21T05:53:52.166Z,62.77
2017-08-21T05:54:24.443Z,63.25
2017-08-21T05:54:56.708Z,62.68
2017-08-21T05:55:29.040Z,62.77
2017-08-21T05:56:01.287Z,62.68
2017-08-21T05:56:33.682Z,62.58
2017-08-21T05:57:05.925Z,62.68
2017-08-21T05:57:38.207Z,62.77
2017-08-21T05:58:10.501Z,62.58
2017-08-21T05:58:42.743Z,62.77
2017-08-21T05:59:15.050Z,63.15
2017-08-21T05:59:47.296Z,62.68
2017-08-21T06:00:19.596Z,62.77
2017-08-21T06:00:51.891Z,62.77
2017-08-21T06:01:24.238Z,62.77
2017-08-21T06:01:56.487Z,62.77
2017-08-21T06:02:28.762Z,62.77
2017-08-21T06:03:01.045Z,62.87
2017-08-21T06:03:33.336Z,63.06
2017-08-21T06:04:05.798Z,62.58
2017-08-21T06:04:38.133Z,62.61
2017-08-21T06:05:10.435Z,63.28
2017-08-21T06:05:42.722Z,62.61
2017-08-21T06:06:15.030Z,62.61
2017-08-21T06:06:47.331Z,62.61
2017-08-21T06:07:19.643Z,62.61
2017-08-21T06:07:51.937Z,62.51
2017-08-21T06:08:24.262Z,62.71
2017-08-21T06:08:56.554Z,62.71
2017-08-21T06:09:28.852Z,62.61
2017-08-21T06:10:01.156Z,63.28
2017-08-21T06:10:33.472Z,62.71
2017-08-21T06:11:05.780Z,62.71
2017-08-21T06:11:38.062Z,62.9
2017-08-21T06:12:10.361Z,62.61
2017-08-21T06:12:42.679Z,62.51
2017-08-21T06:13:14.970Z,62.61
2017-08-21T06:13:47.363Z,63.28
2017-08-21T06:14:19.653Z,62.51
2017-08-21T06:14:51.948Z,62.61
2017-08-21T06:15:24.247Z,62.61
2017-08-21T06:15:56.551Z,62.8
2017-08-21T06:16:28.854Z,62.61
2017-08-21T06:17:01.176Z,62.61
2017-08-21T06:17:33.468Z,62.71
2017-08-21T06:18:05.813Z,62.51
2017-08-21T06:18:38.094Z,62.45
2017-08-21T06:19:10.400Z,62.83
2017-08-21T06:19:42.710Z,62.74
2017-08-21T06:20:15.006Z,62.93
2017-08-21T06:20:47.306Z,62.74
2017-08-21T06:21:20.691Z,62.54
2017-08-21T06:21:53.621Z,62.54
2017-08-21T06:22:25.932Z,62.54
2017-08-21T06:22:58.240Z,62.54
2017-08-21T06:23:30.563Z,62.35
2017-08-21T06:24:02.871Z,62.74
2017-08-21T06:24:35.163Z,61.97
2017-08-21T06:25:07.467Z,62.54
2017-08-21T06:25:39.918Z,62.64
2017-08-21T06:26:14.113Z,62.35
2017-08-21T06:26:46.395Z,62.26
2017-08-21T06:27:18.686Z,62.35
2017-08-21T06:27:50.994Z,62.06
2017-08-21T06:28:23.285Z,62.35
2017-08-21T06:28:55.570Z,62.06
2017-08-21T06:29:27.858Z,62.16
2017-08-21T06:30:00.160Z,61.97
2017-08-21T06:30:32.447Z,62.06
2017-08-21T06:31:04.749Z,61.97
2017-08-21T06:31:37.048Z,61.97
2017-08-21T06:32:09.318Z,61.97
2017-08-21T06:32:41.613Z,62.16
2017-08-21T06:33:13.888Z,62.35
2017-08-21T06:33:46.145Z,62.06
2017-08-21T06:34:18.442Z,62.16
2017-08-21T06:34:50.696Z,62.57
2017-08-21T06:35:22.957Z,62.19
2017-08-21T06:35:55.214Z,62.67
2017-08-21T06:36:28.082Z,62.09
2017-08-21T06:37:00.343Z,62
2017-08-21T06:37:32.587Z,61.8
2017-08-21T06:38:04.872Z,62.48
2017-08-21T06:38:37.139Z,61.8
2017-08-21T06:39:09.497Z,62.29
2017-08-21T06:39:41.761Z,61.9
2017-08-21T06:40:14.113Z,61.61
2017-08-21T06:40:46.379Z,61.71
2017-08-21T06:41:18.670Z,61.9
2017-08-21T06:41:51.022Z,62.29
2017-08-21T06:42:23.280Z,62.48
2017-08-21T06:42:55.527Z,62.57
2017-08-21T06:43:27.823Z,62
2017-08-21T06:44:00.104Z,62
2017-08-21T06:44:32.418Z,61.61
2017-08-21T06:45:04.713Z,61.71
2017-08-21T06:46:56.329Z,62.09
2017-08-21T06:47:28.637Z,62
2017-08-21T06:48:00.936Z,62
2017-08-21T06:48:33.224Z,62
2017-08-21T06:49:05.538Z,61.9
2017-08-21T06:49:37.832Z,61.83
2017-08-21T06:50:10.106Z,61.93
2017-08-21T06:50:42.385Z,61.74
2017-08-21T06:51:14.687Z,61.93
2017-08-21T06:51:46.698Z,61.93
2017-08-21T06:52:21.658Z,62.22
2017-08-21T06:52:53.957Z,62.22
2017-08-21T06:53:26.260Z,62.03
2017-08-21T06:53:58.578Z,62.03
2017-08-21T06:54:30.874Z,62.12
2017-08-21T06:55:03.137Z,62.22
2017-08-21T06:55:35.375Z,62.22
2017-08-21T06:56:07.793Z,62.22
2017-08-21T06:56:40.086Z,62.03
2017-08-21T06:57:12.391Z,62.22
2017-08-21T06:57:44.672Z,62.32
2017-08-21T06:58:17.150Z,62.22
2017-08-21T06:58:49.421Z,61.83